Rapports METAR des aéroports proches

 

LFSI - St. Dizier/Robin, France
Distance from station: SO 26km
Mise à jour: 25/09/2018 07:00
clair
clair
 Wind from ENE
Vent: ENE 6 km/h
Température: 5°C
Point de rosée: 4°C
Humidité: 93%
Baromètre: 1036 hPa
Résumé: clair
Visibility: greater than 10 km
2018/09/25 05:00 LFSI 250500Z AUTO 06003KT CAVOK 05/04 Q1036
LFSO - Nancy/Ochey (faf, France
Distance from station: ESE 62km
Mise à jour: 25/09/2018 07:00
clair
clair
 Wind from N
Vent: N 6 km/h
Température: 5°C
Point de rosée: 4°C
Humidité: 93%
Baromètre: 1035 hPa
Résumé: clair
Visibility: greater than 10 km
2018/09/25 05:00 LFSO 250500Z AUTO 01003KT 340V040 CAVOK 05/04 Q1035
 
LFOK - Chalons/Vatry Fa, France
Distance from station: O 73km
Mise à jour: 25/09/2018 07:00
clair
clair
 Wind from NNE
Vent: NNE 9 km/h
Température: 3°C
Wind Chill: 0°C
Point de rosée: 2°C
Humidité: 93%
Baromètre: 1036 hPa
Résumé: clair
Visibility: greater than 10 km
2018/09/25 05:00 LFOK 250500Z AUTO 03005KT CAVOK 03/02 Q1036 TEMPO 4000 BR
LFSN - Nancy/Essey, France
Distance from station: E 77km
Mise à jour: 25/09/2018 07:00
clair
clair
 Wind from NE
Vent: NE 15 km/h
Température: 5°C
Wind Chill: 2°C
Point de rosée: 3°C
Humidité: 87%
Baromètre: 1036 hPa
Résumé: clair
Visibility: greater than 10 km
2018/09/25 05:00 LFSN 250500Z AUTO 04008KT CAVOK 05/03 Q1036
 
LFJL - Metz-Nancy-Lorra, France
Distance from station: ENE 82km
Mise à jour: 25/09/2018 07:00
clair
clair
 Wind from varies
Vent: varies 4 km/h
Température: 4°C
Point de rosée: 3°C
Humidité: 93%
Baromètre: 1036 hPa
Résumé: clair
Visibility: greater than 10 km
2018/09/25 05:00 LFJL 250500Z AUTO VRB02KT CAVOK 04/03 Q1036 BECMG 08013KT
LFQA - Reims/Prunay, France
Distance from station: ONO 89km
Mise à jour: 25/09/2018 07:00
clair
clair
 Wind from varies
Vent: varies 2 km/h
Température: 5°C
Point de rosée: 4°C
Humidité: 93%
Baromètre: 1037 hPa
Résumé: clair
Visibility: greater than 10 km
2018/09/25 05:00 LFQA 250500Z AUTO VRB01KT CAVOK 05/04 Q1037
 
LFQB - Troyes/Barberey, France
Distance from station: OSO 99km
Mise à jour: 25/09/2018 07:00
clair
clair
 Wind from NE
Vent: NE 7 km/h
Température: 7°C
Wind Chill: 6°C
Point de rosée: 5°C
Humidité: 87%
Baromètre: 1036 hPa
Résumé: clair
Visibility: greater than 10 km
2018/09/25 05:00 LFQB 250500Z AUTO 04004KT 010V070 CAVOK 07/05 Q1036
ELLX - Luxembourg (aut), Luxembourg
Distance from station: NE 122km
Mise à jour: 25/09/2018 06:50
clair
clair
 Wind from NE
Vent: NE 17 km/h
Température: 6°C
Wind Chill: 3°C
Point de rosée: 3°C
Humidité: 81%
Baromètre: 1036 hPa
Résumé: clair
Visibility: greater than 10 km
2018/09/25 04:50 ELLX 250450Z 04009KT CAVOK 06/03 Q1036 NOSIG